Time;durP1;ratioP1;P1;durP2;ratioP2;P2;SDS_P1;SDS_P2;PMS_P1;PMS_P2;Temp;Humidity;BMP_temperature;BMP_pressure;BME280_temperature;BME280_humidity;BME280_pressure;Samples;Min_cycle;Max_cycle;Signal;HPM_P1;HPM_P2
2023/09/29 00:00:14;;;;;;;12.20;10.40;;;;;;;16.44;72.58;93331.91;5069252;28;20197;-75
2023/09/29 00:02:40;;;;;;;15.23;11.60;;;;;;;16.34;72.34;93326.84;5066784;28;20177;-75
2023/09/29 00:05:06;;;;;;;11.77;10.70;;;;;;;16.26;73.03;93329.38;5066262;28;20694;-75
2023/09/29 00:07:31;;;;;;;10.87;9.90;;;;;;;16.29;72.95;93326.94;5068489;28;20209;-74
2023/09/29 00:09:57;;;;;;;10.83;10.03;;;;;;;16.22;72.49;93318.63;5068048;28;20193;-75
2023/09/29 00:12:22;;;;;;;12.10;10.10;;;;;;;16.19;73.59;93334.28;5066640;28;20192;-76
2023/09/29 00:14:47;;;;;;;10.93;9.77;;;;;;;16.03;72.67;93321.38;5066683;28;20281;-75
2023/09/29 00:17:13;;;;;;;12.57;10.50;;;;;;;16.02;72.35;93316.41;5065198;28;20212;-75
2023/09/29 00:19:39;;;;;;;10.63;9.93;;;;;;;15.95;72.31;93316.03;5058428;28;20221;-76
2023/09/29 00:22:04;;;;;;;11.67;10.83;;;;;;;16.07;72.41;93332.13;5061218;28;20192;-76
2023/09/29 00:24:29;;;;;;;14.23;10.50;;;;;;;16.15;72.33;93333.28;5060011;28;20220;-77
2023/09/29 00:26:55;;;;;;;11.27;10.17;;;;;;;16.01;71.68;93325.41;5068328;28;20221;-77
2023/09/29 00:29:20;;;;;;;11.50;10.30;;;;;;;15.92;70.52;93324.53;5061576;28;20253;-76
2023/09/29 00:31:46;;;;;;;11.33;10.23;;;;;;;15.92;72.16;93329.81;5068586;28;20216;-76
2023/09/29 00:34:11;;;;;;;11.53;10.33;;;;;;;15.86;71.73;93320.41;5060925;28;20213;-77
2023/09/29 00:36:38;;;;;;;12.93;10.00;;;;;;;15.82;71.75;93324.72;5056704;28;20186;-76
2023/09/29 00:39:07;;;;;;;13.87;8.77;;;;;;;15.74;71.66;93307.75;5062071;28;20217;-76
2023/09/29 00:41:32;;;;;;;11.30;10.27;;;;;;;15.71;72.50;93323.34;5065009;28;20189;-76
2023/09/29 00:43:58;;;;;;;10.97;9.97;;;;;;;15.83;73.15;93321.00;5070681;28;20237;-77
2023/09/29 00:46:25;;;;;;;11.17;9.73;;;;;;;15.76;73.13;93316.16;5069817;28;20228;-78
2023/09/29 00:48:50;;;;;;;14.27;10.37;;;;;;;15.65;73.31;93316.63;5063301;28;20285;-77
2023/09/29 00:51:20;;;;;;;10.67;9.53;;;;;;;15.49;73.34;93320.59;5066221;28;20200;-78
2023/09/29 00:53:46;;;;;;;10.07;9.37;;;;;;;15.40;73.94;93317.06;5065769;28;20213;-76
2023/09/29 00:56:12;;;;;;;14.10;11.20;;;;;;;15.39;73.86;93311.03;5070345;28;20197;-77
2023/09/29 00:58:39;;;;;;;10.00;9.00;;;;;;;15.33;74.23;93324.53;5071308;28;20244;-76
2023/09/29 01:01:07;;;;;;;10.90;10.13;;;;;;;15.22;73.64;93323.16;5069055;28;20188;-75
2023/09/29 01:03:32;;;;;;;11.13;10.10;;;;;;;15.21;74.68;93322.38;5072052;28;20240;-75
2023/09/29 01:05:58;;;;;;;11.50;9.93;;;;;;;15.21;75.78;93311.84;5072550;28;20205;-76
2023/09/29 01:08:26;;;;;;;13.40;9.37;;;;;;;15.23;75.55;93316.81;5070918;28;20217;-75
2023/09/29 01:10:52;;;;;;;13.90;10.27;;;;;;;15.24;74.01;93311.25;5072554;28;20192;-75
2023/09/29 01:13:18;;;;;;;10.27;9.47;;;;;;;15.12;72.76;93305.69;5055434;28;20218;-76
2023/09/29 01:15:44;;;;;;;14.77;9.33;;;;;;;15.08;72.25;93304.69;5059851;28;20204;-76
2023/09/29 01:18:09;;;;;;;12.20;10.10;;;;;;;15.22;71.58;93305.50;5061356;28;20312;-76
2023/09/29 01:20:37;;;;;;;10.77;9.83;;;;;;;15.26;71.26;93311.75;5066905;28;20206;-75
2023/09/29 01:23:04;;;;;;;11.57;10.40;;;;;;;15.26;71.07;93311.75;5065514;28;20217;-75
2023/09/29 01:25:30;;;;;;;10.63;9.93;;;;;;;15.38;71.23;93319.19;5071372;28;20237;-76
2023/09/29 01:27:56;;;;;;;10.33;9.50;;;;;;;15.36;71.80;93313.44;5069906;28;20229;-75
2023/09/29 01:30:22;;;;;;;12.87;10.53;;;;;;;15.27;72.01;93313.31;5072141;28;20208;-76
2023/09/29 01:32:50;;;;;;;10.97;9.97;;;;;;;15.31;71.86;93316.94;5061979;28;20213;-76
2023/09/29 01:35:23;;;;;;;12.47;9.70;;;;;;;15.21;71.47;93313.69;5067837;28;20166;-76
2023/09/29 01:37:49;;;;;;;10.83;10.00;;;;;;;15.19;71.45;93313.97;5070042;28;20196;-76
2023/09/29 01:40:15;;;;;;;11.43;9.97;;;;;;;15.19;71.06;93315.84;5057698;28;20197;-75
2023/09/29 01:42:42;;;;;;;10.40;9.27;;;;;;;15.27;70.78;93318.56;5067956;28;20193;-76
2023/09/29 01:45:08;;;;;;;9.87;9.07;;;;;;;15.30;70.69;93312.72;5061329;28;20189;-76
2023/09/29 01:47:41;;;;;;;14.70;10.10;;;;;;;15.22;70.15;93310.75;5059423;28;20186;-75
2023/09/29 01:50:07;;;;;;;15.43;9.37;;;;;;;15.27;70.98;93318.56;5071230;28;20256;-76
2023/09/29 01:52:33;;;;;;;14.40;9.90;;;;;;;15.20;70.36;93315.56;5070786;28;20216;-75
2023/09/29 01:55:01;;;;;;;10.07;9.23;;;;;;;15.20;70.48;93322.66;5063683;28;20198;-75
2023/09/29 01:57:26;;;;;;;15.03;9.77;;;;;;;15.17;71.33;93323.22;5066893;28;20241;-76
2023/09/29 01:59:52;;;;;;;17.67;10.80;;;;;;;15.04;71.96;93302.94;5064943;28;20255;-76
2023/09/29 02:02:17;;;;;;;13.27;10.00;;;;;;;15.11;72.52;93316.50;5064083;28;20182;-76
2023/09/29 02:04:43;;;;;;;10.80;9.80;;;;;;;15.07;73.54;93304.97;5058158;28;20221;-77
2023/09/29 02:07:09;;;;;;;9.90;9.20;;;;;;;15.24;71.80;93321.78;5059420;28;20206;-76
2023/09/29 02:09:34;;;;;;;10.73;9.73;;;;;;;15.22;70.04;93307.38;5086773;28;20276;-76
2023/09/29 02:12:01;;;;;;;10.67;9.77;;;;;;;15.23;69.26;93308.91;5084107;28;20201;-76
2023/09/29 02:14:26;;;;;;;11.03;9.93;;;;;;;15.36;69.83;93322.09;5090673;28;20215;-76
2023/09/29 02:16:53;;;;;;;10.90;10.00;;;;;;;15.43;70.87;93311.22;5091156;28;20180;-76
2023/09/29 02:19:19;;;;;;;20.47;9.00;;;;;;;15.49;71.33;93312.69;5090712;28;20227;-76
2023/09/29 02:21:45;;;;;;;11.60;10.40;;;;;;;15.58;71.39;93310.97;5091224;28;20274;-77
2023/09/29 02:24:11;;;;;;;11.80;8.60;;;;;;;15.64;71.10;93307.16;5089267;28;20212;-76
2023/09/29 02:26:38;;;;;;;12.03;10.77;;;;;;;15.50;70.71;93311.63;5087366;28;20231;-77
2023/09/29 02:29:07;;;;;;;11.13;10.07;;;;;;;15.39;71.01;93321.53;5088977;28;20229;-76
2023/09/29 02:31:34;;;;;;;11.43;10.20;;;;;;;15.49;71.55;93310.84;5093080;28;20180;-76
2023/09/29 02:33:59;;;;;;;10.33;9.47;;;;;;;15.42;71.61;93313.09;5088973;28;20280;-76
2023/09/29 02:36:24;;;;;;;10.30;9.60;;;;;;;15.44;72.66;93320.69;5078278;28;20193;-76
2023/09/29 02:38:50;;;;;;;11.70;10.20;;;;;;;15.49;73.24;93310.06;5086153;28;20240;-76
2023/09/29 02:41:15;;;;;;;10.63;9.40;;;;;;;15.34;73.77;93323.47;5091227;28;20188;-76
2023/09/29 02:43:41;;;;;;;10.37;9.47;;;;;;;15.43;71.47;93329.66;5090353;28;20220;-77
2023/09/29 02:46:14;;;;;;;12.47;9.97;;;;;;;15.52;70.56;93333.97;5090435;28;20339;-75
2023/09/29 02:48:40;;;;;;;13.13;10.57;;;;;;;15.47;71.92;93328.00;5086996;28;20221;-76
2023/09/29 02:51:15;;;;;;;13.63;9.73;;;;;;;15.41;72.18;93335.19;5093576;28;20196;-77
2023/09/29 02:53:40;;;;;;;12.80;10.67;;;;;;;15.45;71.94;93338.03;5088127;28;20241;-76
2023/09/29 02:56:06;;;;;;;11.00;9.77;;;;;;;15.45;72.02;93338.81;5090601;28;20181;-78
2023/09/29 02:58:34;;;;;;;11.20;9.97;;;;;;;15.52;71.91;93339.22;5087043;28;20224;-77
2023/09/29 03:00:59;;;;;;;10.07;9.33;;;;;;;15.50;73.09;93345.84;5090164;28;20195;-76
2023/09/29 03:03:26;;;;;;;15.70;9.63;;;;;;;15.55;73.41;93349.16;5090136;28;20220;-77
2023/09/29 03:05:53;;;;;;;11.47;10.37;;;;;;;15.37;73.25;93330.78;5087229;28;20205;-76
2023/09/29 03:08:18;;;;;;;11.50;9.80;;;;;;;15.32;73.36;93346.66;5090008;28;20221;-76
2023/09/29 03:10:44;;;;;;;17.83;10.30;;;;;;;15.29;72.83;93341.97;5089742;28;20161;-77
2023/09/29 03:13:09;;;;;;;13.50;10.60;;;;;;;15.22;72.59;93326.53;5086424;28;20255;-76
2023/09/29 03:15:35;;;;;;;11.50;10.60;;;;;;;15.15;72.62;93328.00;5082249;28;20219;-78
2023/09/29 03:18:01;;;;;;;12.10;10.37;;;;;;;15.29;73.68;93334.88;5081953;28;20237;-76
2023/09/29 03:20:27;;;;;;;13.20;10.13;;;;;;;15.23;73.88;93338.66;5089582;28;20177;-77
2023/09/29 03:22:56;;;;;;;11.67;10.73;;;;;;;15.34;72.68;93339.25;5088984;28;20236;-76
2023/09/29 03:25:22;;;;;;;11.90;10.73;;;;;;;15.37;72.17;93333.41;5083669;28;20306;-76
2023/09/29 03:27:48;;;;;;;11.40;10.33;;;;;;;15.30;72.24;93330.38;5085046;28;20204;-77
2023/09/29 03:30:13;;;;;;;10.97;9.97;;;;;;;15.24;71.32;93328.88;5089056;28;20174;-77
2023/09/29 03:32:39;;;;;;;13.93;9.87;;;;;;;15.33;70.94;93327.19;5079799;28;20208;-77
2023/09/29 03:35:05;;;;;;;11.10;10.20;;;;;;;15.25;71.64;93325.22;5087902;28;20169;-77
2023/09/29 03:37:36;;;;;;;10.83;9.90;;;;;;;15.30;73.03;93340.91;5089375;28;20176;-77
2023/09/29 03:40:06;;;;;;;12.83;10.70;;;;;;;15.34;71.65;93339.25;5088628;28;20265;-77
2023/09/29 03:42:32;;;;;;;11.17;10.37;;;;;;;15.26;71.68;93338.06;5089027;28;20169;-76
2023/09/29 03:44:58;;;;;;;11.53;10.13;;;;;;;15.31;71.89;93340.63;5089880;28;20267;-78
2023/09/29 03:47:23;;;;;;;11.17;8.90;;;;;;;15.24;71.88;93334.94;5084412;28;20254;-76
2023/09/29 03:49:49;;;;;;;10.70;9.83;;;;;;;15.26;72.42;93347.81;5080800;28;20590;-76
2023/09/29 03:52:14;;;;;;;12.47;10.20;;;;;;;15.11;74.14;93334.91;5081531;28;20216;-76
2023/09/29 03:54:39;;;;;;;12.50;9.83;;;;;;;15.17;73.31;93341.66;5082962;28;20253;-76
2023/09/29 03:57:10;;;;;;;13.50;9.53;;;;;;;14.72;73.52;93282.69;5088229;28;20203;-76
2023/09/29 03:59:35;;;;;;;11.37;10.13;;;;;;;15.04;73.35;93345.00;5075616;28;20839;-77
2023/09/29 04:02:02;;;;;;;10.90;10.10;;;;;;;15.07;73.18;93333.91;5068536;28;20173;-76
2023/09/29 04:04:28;;;;;;;12.30;9.20;;;;;;;15.14;73.96;93343.00;5087664;28;20950;-76
2023/09/29 04:06:53;;;;;;;10.87;10.10;;;;;;;15.08;72.14;93331.00;5090409;28;20216;-76
2023/09/29 04:09:20;;;;;;;11.00;9.53;;;;;;;15.07;72.38;93339.97;5083220;28;20223;-76
2023/09/29 04:11:45;;;;;;;15.57;10.07;;;;;;;15.06;71.71;93337.63;5089393;28;20191;-76
2023/09/29 04:14:11;;;;;;;12.23;10.13;;;;;;;15.09;70.89;93331.78;5075931;28;20762;-77
2023/09/29 04:16:36;;;;;;;14.60;9.97;;;;;;;15.02;71.16;93339.28;5060405;28;20182;-77
2023/09/29 04:19:01;;;;;;;13.03;9.80;;;;;;;14.92;70.76;93323.63;5087162;28;20303;-76
2023/09/29 04:21:27;;;;;;;11.30;9.77;;;;;;;15.07;70.43;93339.16;5081369;28;20955;-79
2023/09/29 04:23:52;;;;;;;12.97;10.13;;;;;;;15.10;70.04;93328.84;5079593;28;20217;-76
2023/09/29 04:26:20;;;;;;;17.80;10.70;;;;;;;15.19;69.97;93342.16;5088764;28;20216;-76
2023/09/29 04:28:46;;;;;;;10.50;9.33;;;;;;;15.27;69.55;93346.75;5086353;28;20232;-77
2023/09/29 04:31:16;;;;;;;14.87;9.33;;;;;;;15.12;69.84;93329.38;5088257;28;20260;-76
2023/09/29 04:33:41;;;;;;;11.57;10.47;;;;;;;15.19;70.71;93345.53;5083434;28;20220;-78
2023/09/29 04:36:07;;;;;;;14.73;9.73;;;;;;;15.33;70.05;93343.72;5081677;28;20210;-76
2023/09/29 04:38:33;;;;;;;9.77;9.03;;;;;;;15.37;69.95;93346.56;5088467;28;20220;-76
2023/09/29 04:40:58;;;;;;;11.00;9.73;;;;;;;15.41;69.51;93350.22;5071375;28;20176;-76
2023/09/29 04:43:24;;;;;;;11.50;10.33;;;;;;;15.39;69.38;93339.97;5057606;28;20281;-76
2023/09/29 04:45:49;;;;;;;10.53;9.27;;;;;;;15.49;69.54;93344.28;5089070;28;20211;-75
2023/09/29 04:48:14;;;;;;;11.23;10.10;;;;;;;15.51;69.05;93350.81;5088097;28;20228;-76
2023/09/29 04:50:40;;;;;;;11.13;10.03;;;;;;;15.52;68.90;93341.06;5093659;28;20215;-77
2023/09/29 04:53:05;;;;;;;10.03;9.20;;;;;;;15.65;69.67;93348.19;5070486;28;20224;-76
2023/09/29 04:55:30;;;;;;;19.50;10.20;;;;;;;15.63;71.26;93353.75;5086704;28;20196;-77
2023/09/29 04:57:56;;;;;;;19.07;9.90;;;;;;;15.51;71.67;93347.41;5085296;28;20224;-78
2023/09/29 05:00:21;;;;;;;18.50;10.37;;;;;;;15.53;70.93;93340.00;5085739;28;20184;-77
2023/09/29 05:02:47;;;;;;;20.40;11.00;;;;;;;15.57;71.38;93351.50;5079301;28;20267;-80
2023/09/29 05:05:13;;;;;;;10.50;9.50;;;;;;;15.69;70.77;93363.13;5087304;28;20183;-78
2023/09/29 05:07:38;;;;;;;17.17;10.00;;;;;;;15.50;71.26;93353.75;5087377;28;20188;-79
2023/09/29 05:10:04;;;;;;;11.70;10.60;;;;;;;15.39;73.80;93362.88;5091981;28;20248;-80
2023/09/29 05:12:30;;;;;;;10.70;9.80;;;;;;;15.46;73.50;93358.00;5084386;28;20194;-88
2023/09/29 05:14:57;;;;;;;10.57;9.70;;;;;;;15.59;73.41;93373.84;5076924;28;20302;-79
2023/09/29 05:17:22;;;;;;;13.30;10.10;;;;;;;15.39;73.35;93329.44;5082688;28;20181;-88
2023/09/29 05:19:48;;;;;;;12.40;9.83;;;;;;;15.66;72.37;93355.03;5070462;28;20227;-88
2023/09/29 05:22:13;;;;;;;13.27;10.10;;;;;;;15.80;73.11;93366.34;5085699;28;20211;-79
2023/09/29 05:24:39;;;;;;;12.93;10.70;;;;;;;15.93;71.87;93378.75;5090401;28;20223;-83
2023/09/29 05:27:04;;;;;;;16.90;10.73;;;;;;;16.04;72.50;93365.13;5080342;28;20240;-85
2023/09/29 05:29:30;;;;;;;19.17;10.97;;;;;;;16.04;71.97;93359.84;5063496;28;20224;-79
2023/09/29 05:31:55;;;;;;;15.13;10.67;;;;;;;16.31;71.37;93372.19;5067083;28;20184;-80
2023/09/29 05:34:21;;;;;;;13.57;9.47;;;;;;;16.39;69.19;93360.97;5090914;28;20232;-80
2023/09/29 05:36:46;;;;;;;15.53;10.47;;;;;;;16.30;72.93;93369.84;5079285;28;20217;-83
2023/09/29 05:39:12;;;;;;;11.13;9.80;;;;;;;16.45;71.32;93370.34;5089878;28;20217;-81
2023/09/29 05:41:38;;;;;;;14.73;10.70;;;;;;;16.54;71.67;93357.28;5071777;28;20246;-76
2023/09/29 05:44:03;;;;;;;14.90;9.97;;;;;;;16.76;69.83;93373.91;5085941;28;20231;-76
2023/09/29 05:46:29;;;;;;;17.77;10.67;;;;;;;16.73;70.28;93381.66;5083358;28;20230;-77
2023/09/29 05:48:54;;;;;;;20.47;9.80;;;;;;;16.88;70.89;93381.31;5090984;28;20277;-79
2023/09/29 05:51:20;;;;;;;19.33;10.70;;;;;;;16.95;71.15;93379.81;5077844;28;20245;-80
2023/09/29 05:53:45;;;;;;;10.93;9.93;;;;;;;17.02;73.10;93380.19;5089984;28;20232;-80
2023/09/29 05:56:12;;;;;;;12.97;10.77;;;;;;;17.14;71.67;93377.00;5088937;28;20264;-77
2023/09/29 05:58:38;;;;;;;11.60;10.37;;;;;;;17.33;69.33;93383.69;5084256;28;20261;-76
2023/09/29 06:01:11;;;;;;;10.87;9.60;;;;;;;17.54;67.89;93394.56;5087896;28;20189;-77
2023/09/29 06:03:37;;;;;;;13.47;9.90;;;;;;;17.56;64.95;93379.97;5084647;28;20208;-76
2023/09/29 06:06:03;;;;;;;17.93;9.60;;;;;;;17.80;66.16;93395.47;5089020;28;20225;-79
2023/09/29 06:08:29;;;;;;;10.80;9.93;;;;;;;17.83;66.40;93391.44;5095171;28;20287;-76
2023/09/29 06:10:54;;;;;;;13.03;10.03;;;;;;;18.06;65.12;93377.09;5071839;28;20206;-75
2023/09/29 06:13:20;;;;;;;11.67;9.37;;;;;;;18.31;65.81;93389.63;5086146;28;20284;-76
2023/09/29 06:15:45;;;;;;;19.10;10.87;;;;;;;18.19;65.28;93395.50;5079353;28;20231;-76
2023/09/29 06:18:11;;;;;;;16.63;11.00;;;;;;;18.40;64.71;93396.53;5085838;28;20229;-77
2023/09/29 06:20:37;;;;;;;13.60;10.30;;;;;;;18.64;64.57;93396.13;5083185;28;20206;-78
2023/09/29 06:23:04;;;;;;;17.83;11.23;;;;;;;18.48;64.50;93384.41;5082580;28;20229;-77
2023/09/29 06:25:29;;;;;;;24.57;10.70;;;;;;;18.55;65.01;93400.63;5086962;28;20276;-81
2023/09/29 06:27:55;;;;;;;14.83;13.30;;;;;;;18.87;64.20;93392.25;5084279;28;20240;-77
2023/09/29 06:30:20;;;;;;;21.23;11.10;;;;;;;18.79;62.23;93391.16;5068953;28;20216;-76
2023/09/29 06:32:45;;;;;;;28.70;9.47;;;;;;;18.86;61.37;93393.38;5089690;28;20206;-76
2023/09/29 06:35:12;;;;;;;10.93;9.20;;;;;;;19.44;58.12;93390.28;5085628;28;20184;-76
2023/09/29 06:37:38;;;;;;;10.70;9.67;;;;;;;18.99;56.39;93400.38;5094382;28;20208;-76
2023/09/29 06:40:03;;;;;;;12.27;8.87;;;;;;;19.06;53.24;93403.34;5092271;28;20203;-76
2023/09/29 06:42:29;;;;;;;9.97;8.90;;;;;;;19.01;51.17;93400.84;5070266;28;20191;-77
2023/09/29 06:44:54;;;;;;;14.23;9.40;;;;;;;19.05;49.84;93391.22;5084305;28;20280;-77
2023/09/29 06:47:19;;;;;;;10.13;9.23;;;;;;;19.63;47.98;93394.13;5094097;28;20211;-76
2023/09/29 06:49:46;;;;;;;13.70;9.13;;;;;;;19.89;48.94;93400.16;5089949;28;20233;-77
2023/09/29 06:52:11;;;;;;;10.87;8.80;;;;;;;20.13;49.48;93403.09;5088188;28;20194;-75
2023/09/29 06:54:36;;;;;;;10.27;9.47;;;;;;;19.85;48.06;93399.25;5089962;28;20239;-76
2023/09/29 06:57:02;;;;;;;9.97;8.97;;;;;;;19.67;48.52;93399.59;5089733;28;20226;-76
2023/09/29 06:59:27;;;;;;;16.10;8.37;;;;;;;19.99;46.97;93404.34;5092275;28;20224;-76
2023/09/29 07:01:54;;;;;;;12.63;10.30;;;;;;;20.15;46.33;93392.94;5071833;28;20194;-77
2023/09/29 07:04:20;;;;;;;14.83;9.17;;;;;;;20.25;47.85;93397.13;5077743;28;20251;-77
2023/09/29 07:06:45;;;;;;;13.77;10.03;;;;;;;20.14;48.60;93399.31;5089591;28;20214;-77
2023/09/29 07:09:12;;;;;;;13.10;10.67;;;;;;;19.83;47.96;93403.31;5086661;28;20230;-77
2023/09/29 07:11:41;;;;;;;12.63;9.80;;;;;;;20.06;48.14;93402.75;5085885;28;20240;-75
2023/09/29 07:14:07;;;;;;;14.17;9.80;;;;;;;20.08;47.61;93394.47;5081146;28;20239;-77
2023/09/29 07:16:32;;;;;;;11.83;9.47;;;;;;;20.61;46.39;93403.50;5083241;28;20192;-77
2023/09/29 07:18:57;;;;;;;10.20;9.50;;;;;;;20.79;47.01;93408.69;5088542;28;20281;-76
2023/09/29 07:21:23;;;;;;;10.10;9.10;;;;;;;20.83;45.86;93399.78;5092866;28;20637;-76
2023/09/29 07:23:48;;;;;;;10.13;9.13;;;;;;;20.33;46.31;93405.03;5058047;28;20221;-75
2023/09/29 07:26:14;;;;;;;12.27;9.50;;;;;;;20.14;46.37;93406.53;5068621;28;20266;-77
2023/09/29 07:28:40;;;;;;;9.70;8.77;;;;;;;20.47;44.90;93412.75;5068207;28;20221;-76
2023/09/29 07:31:05;;;;;;;12.33;9.47;;;;;;;20.23;46.63;93418.63;5075983;28;20173;-75
2023/09/29 07:33:31;;;;;;;12.53;9.13;;;;;;;19.79;47.10;93415.63;5055556;28;20236;-78
2023/09/29 07:35:56;;;;;;;11.67;9.20;;;;;;;20.38;45.29;93415.47;5068571;28;20224;-76
2023/09/29 07:38:21;;;;;;;9.77;9.00;;;;;;;20.88;43.54;93420.03;5066685;28;20309;-77
2023/09/29 07:40:48;;;;;;;10.53;9.57;;;;;;;21.16;42.99;93411.31;5061307;28;20195;-76
2023/09/29 07:43:13;;;;;;;14.10;9.60;;;;;;;21.35;42.67;93434.75;5068893;28;20230;-77
2023/09/29 07:45:39;;;;;;;9.57;8.70;;;;;;;21.39;41.69;93422.38;5069734;28;20239;-76
2023/09/29 07:48:05;;;;;;;13.60;8.83;;;;;;;21.07;40.87;93431.03;5066710;28;20236;-76
2023/09/29 07:50:30;;;;;;;12.40;8.65;;;;;;;21.59;39.96;93427.66;5069740;28;20180;-77
2023/09/29 07:52:56;;;;;;;11.90;9.45;;;;;;;21.66;40.64;93427.94;5059461;28;20249;-77
2023/09/29 07:55:22;;;;;;;9.95;9.05;;;;;;;21.71;38.87;93416.31;5067877;28;20174;-76
2023/09/29 07:57:47;;;;;;;9.90;9.00;;;;;;;21.83;39.25;93427.00;5053636;28;20177;-76
2023/09/29 08:00:15;;;;;;;10.35;8.90;;;;;;;22.15;38.69;93413.69;5069545;28;20263;-76
2023/09/29 08:02:43;;;;;;;11.25;10.13;;;;;;;22.39;40.19;93428.13;5067897;28;20215;-76
2023/09/29 08:05:09;;;;;;;14.27;8.98;;;;;;;21.94;40.88;93433.47;5059268;28;20862;-76
2023/09/29 08:07:34;;;;;;;9.60;8.73;;;;;;;22.71;36.75;93430.72;5068476;28;20216;-75
2023/09/29 08:10:00;;;;;;;10.43;8.70;;;;;;;22.49;36.62;93427.72;5067424;28;20198;-76
2023/09/29 08:12:25;;;;;;;9.82;8.70;;;;;;;22.09;35.56;93435.50;5065275;28;20232;-76
2023/09/29 08:14:51;;;;;;;10.80;9.27;;;;;;;22.12;39.48;93432.19;5067285;28;20225;-75
2023/09/29 08:17:18;;;;;;;9.73;8.70;;;;;;;22.00;38.62;93429.50;5063591;28;20193;-74
2023/09/29 08:19:44;;;;;;;10.75;8.77;;;;;;;21.59;37.33;93424.22;5067912;28;20259;-73
2023/09/29 08:22:10;;;;;;;10.30;9.27;;;;;;;21.11;39.32;93427.41;5068902;28;20188;-74
2023/09/29 08:24:35;;;;;;;9.90;8.98;;;;;;;21.04;37.39;93426.38;5066401;28;20230;-75
2023/09/29 08:27:01;;;;;;;10.38;9.13;;;;;;;21.58;38.40;93420.03;5062468;28;20238;-74
2023/09/29 08:29:27;;;;;;;11.48;8.98;;;;;;;21.52;35.69;93431.97;5062160;28;20222;-74
2023/09/29 08:31:53;;;;;;;10.48;9.07;;;;;;;21.44;37.51;93419.50;5067904;28;20198;-72
2023/09/29 08:34:19;;;;;;;9.98;9.00;;;;;;;21.76;37.04;93432.09;5060945;28;20219;-75
2023/09/29 08:36:45;;;;;;;9.43;8.73;;;;;;;22.21;36.34;93416.94;5065715;28;20183;-76
2023/09/29 08:39:10;;;;;;;8.80;8.10;;;;;;;21.86;36.37;93424.50;5060584;28;20225;-74
2023/09/29 08:41:43;;;;;;;9.75;8.68;;;;;;;21.98;37.21;93418.41;5062395;28;20183;-77
2023/09/29 08:44:13;;;;;;;10.15;9.10;;;;;;;21.45;36.33;93421.06;5065560;28;20221;-76
2023/09/29 08:46:41;;;;;;;16.13;8.40;;;;;;;21.27;38.25;93422.31;5066058;28;20223;-76
2023/09/29 08:49:08;;;;;;;9.95;9.10;;;;;;;21.80;36.34;93409.06;5060377;28;20226;-74
2023/09/29 08:51:35;;;;;;;9.15;8.48;;;;;;;21.88;36.05;93426.81;5063378;28;20191;-73
2023/09/29 08:54:02;;;;;;;9.75;8.80;;;;;;;21.99;36.10;93425.31;5065938;28;20239;-73
2023/09/29 08:56:28;;;;;;;9.80;8.65;;;;;;;22.09;36.14;93427.53;5068316;28;20166;-73
2023/09/29 08:58:54;;;;;;;9.27;8.48;;;;;;;21.95;37.08;93424.38;5067704;28;20282;-73
2023/09/29 09:01:20;;;;;;;9.00;8.43;;;;;;;21.95;37.47;93419.84;5066621;28;20861;-73
2023/09/29 09:03:46;;;;;;;14.68;9.65;;;;;;;21.92;36.82;93425.03;5067398;28;20225;-80
2023/09/29 09:06:26;;;;;;;18.92;9.20;;;;;;;21.72;36.74;93423.19;5058978;28;20212;-72
2023/09/29 09:08:52;;;;;;;9.80;9.20;;;;;;;21.57;35.47;93423.78;5070108;28;20213;-74
2023/09/29 09:11:18;;;;;;;11.45;9.93;;;;;;;21.50;37.04;93426.19;5070262;28;20215;-73
2023/09/29 09:13:58;;;;;;;10.88;9.57;;;;;;;21.51;36.24;93430.41;5060262;28;20218;-73
2023/09/29 09:16:25;;;;;;;15.55;9.50;;;;;;;21.24;37.05;93434.38;5067071;28;20188;-74
2023/09/29 09:18:50;;;;;;;9.32;8.40;;;;;;;21.40;36.24;93424.69;5064604;28;20233;-74
2023/09/29 09:21:15;;;;;;;11.00;9.30;;;;;;;21.27;37.83;93411.69;5059960;28;20248;-74
2023/09/29 09:23:41;;;;;;;10.27;9.45;;;;;;;21.55;37.58;93420.66;5058655;28;20242;-74
2023/09/29 09:26:16;;;;;;;10.18;9.48;;;;;;;21.21;38.01;93410.31;5061307;28;20236;-74
2023/09/29 09:28:42;;;;;;;9.60;8.73;;;;;;;21.78;36.08;93428.00;5067289;28;20217;-74
2023/09/29 09:31:08;;;;;;;9.68;8.98;;;;;;;21.74;37.03;93423.63;5063935;28;20176;-74
2023/09/29 09:33:34;;;;;;;13.68;9.27;;;;;;;22.18;36.21;93425.53;5056356;28;20971;-75
2023/09/29 09:36:05;;;;;;;10.02;8.55;;;;;;;22.05;34.91;93423.97;5066956;28;21983;-74
2023/09/29 09:38:32;;;;;;;9.77;9.00;;;;;;;21.91;36.17;93418.19;5064892;28;20235;-74
2023/09/29 09:41:00;;;;;;;9.70;9.00;;;;;;;21.95;36.36;93419.06;5064173;28;20180;-74
2023/09/29 09:43:28;;;;;;;11.63;9.70;;;;;;;21.95;35.64;93409.22;5070431;28;20246;-74
2023/09/29 09:46:02;;;;;;;11.88;9.30;;;;;;;21.83;35.78;93411.06;5071022;28;20215;-74
2023/09/29 09:48:37;;;;;;;12.50;9.15;;;;;;;21.31;36.45;93404.63;5057823;28;20300;-74
2023/09/29 09:51:03;;;;;;;10.68;8.80;;;;;;;21.61;37.52;93419.38;5070383;28;20190;-74
2023/09/29 09:53:33;;;;;;;10.68;8.40;;;;;;;21.63;38.00;93415.28;5070741;28;20234;-74
2023/09/29 09:56:14;;;;;;;10.02;9.32;;;;;;;21.21;39.51;93418.28;5071341;28;20181;-75
2023/09/29 09:58:40;;;;;;;10.63;9.82;;;;;;;21.47;37.91;93421.53;5059563;28;20252;-74
2023/09/29 10:01:07;;;;;;;10.05;9.15;;;;;;;21.07;38.20;93425.75;5069716;28;20187;-74
2023/09/29 10:03:37;;;;;;;9.15;8.48;;;;;;;21.06;39.19;93424.94;5059597;28;20248;-74
2023/09/29 10:06:03;;;;;;;10.57;9.48;;;;;;;21.08;39.33;93414.00;5070798;28;20219;-74
2023/09/29 10:08:30;;;;;;;9.95;9.25;;;;;;;21.32;37.92;93416.81;5070305;28;20373;-74
2023/09/29 10:11:10;;;;;;;10.45;9.25;;;;;;;21.22;38.31;93412.66;5066622;28;20176;-74
2023/09/29 10:13:37;;;;;;;9.57;8.82;;;;;;;21.17;37.46;93417.41;5060358;28;20265;-73
2023/09/29 10:16:05;;;;;;;9.60;8.70;;;;;;;21.02;40.20;93394.84;5053805;28;20187;-75
2023/09/29 10:18:33;;;;;;;10.18;8.98;;;;;;;21.45;38.45;93403.25;5065730;28;20230;-74
2023/09/29 10:21:09;;;;;;;10.05;9.05;;;;;;;21.41;38.05;93393.59;5070807;28;20178;-73
2023/09/29 10:23:45;;;;;;;9.65;8.90;;;;;;;21.31;38.62;93404.63;5056826;28;20230;-73
2023/09/29 10:26:11;;;;;;;10.05;8.65;;;;;;;21.21;38.57;93405.00;5067346;28;20290;-74
2023/09/29 10:28:41;;;;;;;11.05;10.00;;;;;;;21.11;39.55;93394.75;5068275;28;20222;-75
2023/09/29 10:31:13;;;;;;;9.93;9.00;;;;;;;21.05;38.99;93393.41;5066887;28;20269;-74
2023/09/29 10:33:55;;;;;;;10.15;9.00;;;;;;;21.05;40.91;93398.72;5070563;28;20222;-74
2023/09/29 10:36:21;;;;;;;10.70;9.70;;;;;;;20.78;41.04;93385.94;5059429;28;20192;-75
2023/09/29 10:38:49;;;;;;;18.02;10.32;;;;;;;20.75;41.29;93379.38;5070270;28;20218;-74
2023/09/29 10:41:16;;;;;;;13.00;9.93;;;;;;;20.93;41.68;93382.69;5065876;28;20174;-74
2023/09/29 10:43:42;;;;;;;13.48;10.13;;;;;;;20.83;40.90;93372.44;5069144;28;20247;-75
2023/09/29 10:46:09;;;;;;;12.05;10.57;;;;;;;20.79;40.01;93377.63;5065553;28;20205;-75
2023/09/29 10:48:47;;;;;;;14.30;10.50;;;;;;;21.08;39.07;93366.19;5070431;28;20236;-75
2023/09/29 10:51:23;;;;;;;11.50;10.38;;;;;;;21.05;39.80;93380.13;5069357;28;20192;-75
2023/09/29 10:53:49;;;;;;;15.18;10.00;;;;;;;20.86;39.34;93374.47;5063128;28;20227;-75
2023/09/29 10:56:25;;;;;;;12.50;10.98;;;;;;;20.85;38.44;93375.56;5070088;28;20427;-75
2023/09/29 10:58:54;;;;;;;11.00;9.75;;;;;;;20.76;41.61;93361.56;5050030;28;20286;-75
2023/09/29 11:01:22;;;;;;;13.55;10.55;;;;;;;21.21;37.00;93370.47;5066041;28;20202;-77
2023/09/29 11:03:48;;;;;;;13.88;10.27;;;;;;;20.97;39.14;93371.13;5055633;28;20261;-72
2023/09/29 11:06:17;;;;;;;11.27;9.82;;;;;;;20.67;41.92;93362.41;5067649;28;20220;-74
2023/09/29 11:08:51;;;;;;;11.20;10.20;;;;;;;20.75;41.89;93360.03;5057947;28;20229;-74
2023/09/29 11:11:17;;;;;;;13.15;9.75;;;;;;;20.93;41.49;93356.13;5069292;28;20249;-73
2023/09/29 11:13:42;;;;;;;12.20;10.35;;;;;;;21.09;41.48;93349.19;5067606;28;20291;-73
2023/09/29 11:16:16;;;;;;;16.33;11.10;;;;;;;21.21;39.82;93363.31;5058264;28;20180;-73
2023/09/29 11:18:44;;;;;;;11.20;10.10;;;;;;;21.22;37.96;93354.22;5067080;28;20231;-73
2023/09/29 11:21:11;;;;;;;18.20;10.43;;;;;;;21.51;38.69;93346.13;5066424;28;20188;-72